Time;durP1;ratioP1;P1;durP2;ratioP2;P2;SDS_P1;SDS_P2;PMS_P1;PMS_P2;Temp;Humidity;BMP_temperature;BMP_pressure;BME280_temperature;BME280_humidity;BME280_pressure;Samples;Min_cycle;Max_cycle;Signal;HPM_P1;HPM_P2
2023/02/17 00:01:26;;;;;;;0.10;0.10;;;;;;;11.75;75.23;101997.84;5086363;28;20050;-85
2023/02/17 00:03:53;;;;;;;1.38;1.30;;;;;;;11.77;74.99;101996.06;5070729;28;20024;-86
2023/02/17 00:06:21;;;;;;;0.55;0.55;;;;;;;11.72;75.46;101992.56;5078147;28;20041;-87
2023/02/17 00:08:49;;;;;;;1.08;1.08;;;;;;;11.63;75.51;101998.81;5077649;28;20025;-86
2023/02/17 00:11:16;;;;;;;1.38;1.33;;;;;;;11.68;75.06;102001.47;5076563;28;20055;-86
2023/02/17 00:13:43;;;;;;;0.40;0.40;;;;;;;11.61;75.46;101995.28;5072518;28;20077;-86
2023/02/17 00:16:12;;;;;;;0.10;0.10;;;;;;;11.64;75.59;102000.59;5071825;28;20036;-87
2023/02/17 00:18:38;;;;;;;0.73;0.73;;;;;;;11.53;75.89;101989.16;5080015;28;20429;-86
2023/02/17 00:21:15;;;;;;;0.40;0.40;;;;;;;11.56;75.36;101982.03;5077743;28;20036;-86
2023/02/17 00:23:41;;;;;;;0.52;0.52;;;;;;;11.46;75.07;102001.56;5078021;28;20024;-86
2023/02/17 00:26:08;;;;;;;3.38;2.17;;;;;;;11.43;75.67;101998.94;5085440;28;20136;-85
2023/02/17 00:28:35;;;;;;;0.25;0.25;;;;;;;11.43;75.01;101996.28;5087838;28;20040;-85
2023/02/17 00:31:06;;;;;;;0.20;0.20;;;;;;;11.40;75.37;102001.59;5082141;28;20096;-84
2023/02/17 00:33:33;;;;;;;1.47;1.47;;;;;;;11.30;75.31;102006.94;5085719;28;20021;-82
2023/02/17 00:36:01;;;;;;;0.60;0.60;;;;;;;11.24;76.06;101995.47;5086283;28;20436;-82
2023/02/17 00:38:29;;;;;;;0.10;0.10;;;;;;;11.23;75.81;101994.59;5087396;28;20024;-85
2023/02/17 00:40:55;;;;;;;0.60;0.60;;;;;;;11.18;75.86;101977.81;5081097;28;20047;-85
2023/02/17 00:43:21;;;;;;;4.78;0.70;;;;;;;11.18;76.13;101980.47;5081522;28;20028;-86
2023/02/17 00:45:47;;;;;;;0.20;0.20;;;;;;;11.17;76.01;101978.69;5073922;28;20024;-86
2023/02/17 00:48:13;;;;;;;0.10;0.10;;;;;;;11.16;75.86;101982.22;5068065;28;20039;-87
2023/02/17 00:50:39;;;;;;;0.32;0.32;;;;;;;11.13;76.18;101982.25;5073829;28;20513;-84
2023/02/17 00:53:05;;;;;;;1.05;1.05;;;;;;;11.07;76.89;101987.59;5077184;28;20104;-85
2023/02/17 00:55:32;;;;;;;0.22;0.22;;;;;;;11.11;76.26;101982.25;5073714;28;20025;-85
2023/02/17 00:57:58;;;;;;;1.17;1.17;;;;;;;11.09;76.68;101981.38;5077197;28;20050;-85
2023/02/17 01:00:24;;;;;;;0.60;0.60;;;;;;;11.14;76.03;101989.31;5075520;28;20044;-85
2023/02/17 01:02:50;;;;;;;0.30;0.30;;;;;;;11.00;76.54;101979.66;5073223;28;20028;-84
2023/02/17 01:05:16;;;;;;;1.13;1.05;;;;;;;10.99;76.24;101974.34;5079992;28;20508;-84
2023/02/17 01:07:43;;;;;;;1.98;1.17;;;;;;;11.00;76.31;101986.72;5067700;28;20061;-85
2023/02/17 01:10:09;;;;;;;0.38;0.38;;;;;;;11.02;76.44;101976.13;5071261;28;20039;-86
2023/02/17 01:12:36;;;;;;;0.30;0.30;;;;;;;11.01;76.43;101969.91;5069649;28;20032;-84
2023/02/17 01:15:02;;;;;;;0.30;0.30;;;;;;;10.93;77.05;101977.00;5086984;28;20040;-84
2023/02/17 01:17:29;;;;;;;0.65;0.65;;;;;;;10.95;77.01;101996.44;5089218;28;20088;-84
2023/02/17 01:19:56;;;;;;;0.73;0.73;;;;;;;10.97;76.64;102000.88;5083828;28;20050;-85
2023/02/17 01:22:22;;;;;;;0.20;0.20;;;;;;;10.96;76.54;102001.75;5083877;28;20024;-85
2023/02/17 01:24:48;;;;;;;0.52;0.52;;;;;;;10.99;76.53;101991.16;5080004;28;20036;-85
2023/02/17 01:27:14;;;;;;;0.10;0.10;;;;;;;10.99;76.61;101991.16;5079316;28;20028;-84
2023/02/17 01:29:43;;;;;;;0.85;0.85;;;;;;;10.97;76.53;101994.69;5068952;28;20032;-85
2023/02/17 01:32:09;;;;;;;0.55;0.40;;;;;;;10.91;76.98;101986.75;5063122;28;20117;-83
2023/02/17 01:34:36;;;;;;;0.10;0.10;;;;;;;10.92;76.64;101973.47;5063158;28;20025;-84
2023/02/17 01:37:02;;;;;;;0.10;0.10;;;;;;;10.87;77.10;101954.06;5068117;28;20035;-85
2023/02/17 01:39:28;;;;;;;0.57;0.57;;;;;;;10.92;76.83;101967.31;5072065;28;20036;-84
2023/02/17 01:41:55;;;;;;;1.95;1.85;;;;;;;10.95;76.69;101968.19;5066204;28;20020;-85
2023/02/17 01:44:25;;;;;;;0.68;0.68;;;;;;;10.92;76.52;101960.22;5067158;28;20170;-86
2023/02/17 01:46:53;;;;;;;0.63;0.63;;;;;;;10.84;76.93;101959.34;5068625;28;20112;-86
2023/02/17 01:49:38;;;;;;;3.60;2.95;;;;;;;11.01;76.57;101961.97;5070784;28;20056;-86
2023/02/17 01:52:23;;;;;;;0.45;0.45;;;;;;;10.98;76.66;101957.56;5067124;28;20414;-84
2023/02/17 01:54:58;;;;;;;0.15;0.15;;;;;;;10.92;76.28;101952.28;5075963;28;20418;-86
2023/02/17 01:57:27;;;;;;;2.63;1.05;;;;;;;10.85;76.50;101966.44;5075233;28;20040;-84
2023/02/17 01:59:54;;;;;;;0.13;0.13;;;;;;;10.89;76.53;101965.56;5076587;28;20056;-85
2023/02/17 02:05:37;;;;;;;0.15;0.15;;;;;;;10.93;76.26;101959.34;4995325;28;20050;-85
2023/02/17 02:08:29;;;;;;;0.17;0.17;;;;;;;10.88;76.02;101945.22;4954609;29;20035;-84
2023/02/17 02:10:56;;;;;;;0.20;0.20;;;;;;;10.87;75.52;101942.59;4950521;29;20035;-84
2023/02/17 02:13:30;;;;;;;0.45;0.45;;;;;;;10.89;75.98;101933.75;4939225;29;20087;-84
2023/02/17 02:16:09;;;;;;;1.15;1.15;;;;;;;10.93;75.56;101929.28;4945325;29;20035;-84
2023/02/17 02:18:45;;;;;;;0.10;0.10;;;;;;;10.87;75.80;101926.69;4945762;29;20059;-85
2023/02/17 02:21:39;;;;;;;1.77;1.67;;;;;;;10.84;75.60;101927.53;4943348;29;20036;-85
2023/02/17 02:35:31;;;;;;;0.70;0.65;;;;;;;10.88;76.45;101908.09;5098648;27;1301693;-83
2023/02/17 02:38:09;;;;;;;3.30;2.20;;;;;;;10.89;75.88;101909.88;5146031;27;20035;-84
2023/02/17 02:40:41;;;;;;;0.50;0.25;;;;;;;10.98;75.92;101903.66;5143120;27;20033;-85
2023/02/17 02:43:08;;;;;;;0.30;0.30;;;;;;;10.97;75.95;101901.88;5122684;28;20088;-84
2023/02/17 02:45:34;;;;;;;0.35;0.35;;;;;;;10.95;76.01;101915.16;5111276;28;20036;-84
2023/02/17 02:48:00;;;;;;;0.60;0.60;;;;;;;10.94;75.78;101900.13;5113085;28;20521;-84
2023/02/17 03:01:38;;;;;;;0.22;0.22;;;;;;;10.99;76.63;101894.78;5073381;27;20397;-84
2023/02/17 03:06:53;;;;;;;1.15;1.05;;;;;;;10.97;76.54;101886.84;5102893;27;1259179;-85
2023/02/17 03:09:24;;;;;;;0.30;0.30;;;;;;;10.85;77.04;101900.16;5133394;27;20039;-85
2023/02/17 03:11:52;;;;;;;0.10;0.10;;;;;;;10.94;76.33;101891.28;5123931;28;20027;-86
2023/02/17 03:14:20;;;;;;;0.35;0.35;;;;;;;10.91;76.74;101878.03;5112083;28;20020;-86
2023/02/17 03:16:47;;;;;;;0.90;0.90;;;;;;;10.91;76.71;101862.13;5111428;28;20032;-86
2023/02/17 03:19:15;;;;;;;1.40;1.30;;;;;;;10.97;76.65;101857.66;5111248;28;20034;-85
2023/02/17 03:24:30;;;;;;;0.00;0.00;;;;;;;11.00;76.79;101848.81;5069828;27;20387;-86
2023/02/17 03:26:56;;;;;;;0.82;0.82;;;;;;;10.98;76.54;101846.19;5067785;28;20471;-86
2023/02/17 03:29:22;;;;;;;0.25;0.25;;;;;;;11.03;76.96;101837.31;5064542;28;20037;-85
2023/02/17 03:31:49;;;;;;;0.13;0.13;;;;;;;11.03;76.19;101843.50;5070303;28;20054;-86
2023/02/17 03:34:17;;;;;;;0.25;0.25;;;;;;;11.05;76.53;101843.50;5060816;28;20021;-86
2023/02/17 03:36:43;;;;;;;0.15;0.15;;;;;;;11.04;76.40;101855.88;5072259;28;20032;-86
2023/02/17 03:39:10;;;;;;;0.32;0.32;;;;;;;11.05;76.75;101851.44;5069051;28;20021;-86
2023/02/17 03:41:39;;;;;;;0.10;0.10;;;;;;;11.06;76.71;101832.00;5068467;28;20037;-85
2023/02/17 03:44:05;;;;;;;0.20;0.20;;;;;;;11.14;76.33;101836.38;5068576;28;20076;-85
2023/02/17 03:46:31;;;;;;;0.77;0.77;;;;;;;11.20;76.54;101846.03;5052532;28;20048;-85
2023/02/17 03:48:57;;;;;;;0.20;0.20;;;;;;;11.26;76.51;101853.09;5066885;28;20024;-85
2023/02/17 03:51:24;;;;;;;2.17;0.95;;;;;;;11.18;76.23;101853.13;5068880;28;20074;-84
2023/02/17 03:53:51;;;;;;;0.10;0.10;;;;;;;11.23;76.37;101867.25;5070633;28;20024;-86
2023/02/17 03:56:18;;;;;;;2.33;2.17;;;;;;;11.23;75.97;101869.03;5072632;28;20032;-85
2023/02/17 03:58:45;;;;;;;0.30;0.30;;;;;;;11.30;76.29;101853.06;5083538;28;20047;-84
2023/02/17 04:01:12;;;;;;;1.05;0.88;;;;;;;11.31;75.81;101864.53;5078635;28;20053;-85
2023/02/17 04:03:40;;;;;;;0.85;0.85;;;;;;;11.42;75.45;101856.53;5080465;28;20025;-86
2023/02/17 04:06:07;;;;;;;1.23;0.93;;;;;;;11.43;75.62;101855.63;5068594;28;20560;-85
2023/02/17 04:08:33;;;;;;;5.65;1.23;;;;;;;11.46;75.49;101860.91;5061364;28;20024;-86
2023/02/17 04:11:01;;;;;;;0.38;0.38;;;;;;;11.52;75.21;101852.91;5066431;28;20043;-85
2023/02/17 04:13:28;;;;;;;0.98;0.98;;;;;;;11.46;75.74;101863.56;5068617;28;20053;-84
2023/02/17 04:15:54;;;;;;;0.52;0.52;;;;;;;11.39;75.34;101880.41;5072471;28;20047;-86
2023/02/17 04:18:21;;;;;;;0.55;0.55;;;;;;;11.49;75.81;101869.72;5066966;28;20029;-85
2023/02/17 04:20:48;;;;;;;0.32;0.32;;;;;;;11.47;75.12;101875.94;5067481;28;20033;-84
2023/02/17 04:23:18;;;;;;;10.40;2.50;;;;;;;11.59;75.13;101865.22;5066244;28;20025;-86
2023/02/17 04:25:45;;;;;;;0.70;0.70;;;;;;;11.52;75.36;101868.81;5066749;28;20110;-86
2023/02/17 04:28:12;;;;;;;0.10;0.10;;;;;;;11.54;75.33;101861.75;5067732;28;20086;-86
2023/02/17 04:30:41;;;;;;;8.02;3.00;;;;;;;11.55;75.52;101849.34;5064866;28;20177;-87
2023/02/17 04:33:07;;;;;;;1.50;0.95;;;;;;;11.55;75.67;101857.28;5058374;28;20100;-85
2023/02/17 04:35:33;;;;;;;0.20;0.20;;;;;;;11.54;75.93;101850.22;5055374;28;20043;-85
2023/02/17 04:37:59;;;;;;;0.28;0.28;;;;;;;11.59;75.14;101846.66;5057996;28;20017;-85
2023/02/17 04:40:26;;;;;;;0.95;0.65;;;;;;;11.62;75.25;101838.66;5054152;28;20063;-86
2023/02/17 04:42:52;;;;;;;0.30;0.30;;;;;;;11.56;75.33;101844.00;5060495;28;20041;-86
2023/02/17 04:45:18;;;;;;;0.75;0.55;;;;;;;11.67;75.42;101837.75;5054287;28;20057;-84
2023/02/17 04:47:44;;;;;;;10.90;4.57;;;;;;;11.62;75.91;101843.94;5060246;28;20051;-85
2023/02/17 04:50:11;;;;;;;1.30;0.73;;;;;;;11.62;75.77;101833.34;5056210;28;20025;-86
2023/02/17 04:52:37;;;;;;;0.80;0.80;;;;;;;11.63;75.54;101837.75;5057793;28;20094;-85
2023/02/17 04:55:05;;;;;;;6.22;2.17;;;;;;;11.62;76.19;101830.69;5057911;28;20434;-85
2023/02/17 04:57:31;;;;;;;0.57;0.57;;;;;;;11.67;75.59;101837.75;5057805;28;20033;-85
2023/02/17 04:59:57;;;;;;;0.40;0.40;;;;;;;11.65;76.21;101853.66;5060582;28;20112;-85
2023/02/17 05:02:25;;;;;;;2.95;2.83;;;;;;;11.71;76.20;101850.09;5059382;28;20021;-85
2023/02/17 05:04:52;;;;;;;0.98;0.88;;;;;;;11.62;76.18;101870.50;5056572;28;20036;-87
2023/02/17 05:07:18;;;;;;;0.65;0.55;;;;;;;11.68;76.11;101863.41;5052850;28;20033;-85
2023/02/17 05:09:45;;;;;;;1.10;1.10;;;;;;;11.69;76.06;101865.16;5055869;28;20083;-85
2023/02/17 05:12:11;;;;;;;0.10;0.10;;;;;;;11.72;75.71;101862.47;5051504;28;20031;-86
2023/02/17 05:14:37;;;;;;;0.32;0.32;;;;;;;11.64;76.37;101874.03;5048040;28;20029;-85
2023/02/17 05:17:03;;;;;;;0.20;0.20;;;;;;;11.73;75.87;101858.94;5060925;28;20040;-84
2023/02/17 05:19:29;;;;;;;1.45;1.00;;;;;;;11.75;76.16;101859.78;5067289;28;20060;-84
2023/02/17 05:21:55;;;;;;;0.95;0.93;;;;;;;11.74;76.07;101871.28;5067009;28;20025;-84
2023/02/17 05:24:22;;;;;;;1.90;1.65;;;;;;;11.74;76.50;101866.88;5070189;28;20029;-84
2023/02/17 05:26:48;;;;;;;0.30;0.30;;;;;;;11.76;76.08;101862.44;5063040;28;20041;-85
2023/02/17 05:29:14;;;;;;;0.40;0.40;;;;;;;11.82;75.86;101848.22;5053348;28;20037;-85
2023/02/17 05:31:40;;;;;;;3.95;0.73;;;;;;;11.80;76.22;101837.63;5056662;28;20022;-85
2023/02/17 05:34:06;;;;;;;1.63;1.52;;;;;;;11.73;76.83;101849.19;5054029;28;20017;-84
2023/02/17 05:36:32;;;;;;;0.63;0.63;;;;;;;11.77;76.20;101839.41;5053548;28;20102;-84
2023/02/17 05:38:58;;;;;;;0.45;0.45;;;;;;;11.73;76.93;101850.97;5043898;28;20040;-85
2023/02/17 05:41:25;;;;;;;1.67;1.60;;;;;;;11.73;76.81;101843.00;5053377;28;20028;-85
2023/02/17 05:43:51;;;;;;;0.93;0.93;;;;;;;11.76;77.04;101829.69;5049141;28;20028;-85
2023/02/17 05:46:17;;;;;;;0.47;0.47;;;;;;;11.80;76.87;101827.00;5052365;28;20033;-83
2023/02/17 05:48:44;;;;;;;0.60;0.60;;;;;;;11.77;76.87;101807.56;5051006;28;20100;-83
2023/02/17 05:51:12;;;;;;;0.38;0.25;;;;;;;11.79;77.14;101811.09;5055231;28;20501;-83
2023/02/17 05:53:38;;;;;;;0.17;0.17;;;;;;;11.86;76.80;101819.88;5052528;28;20021;-84
2023/02/17 05:56:05;;;;;;;1.38;1.30;;;;;;;11.89;76.70;101826.03;5065394;28;20024;-84
2023/02/17 05:58:31;;;;;;;1.73;1.27;;;;;;;11.84;76.88;101811.91;5062081;28;20033;-84
2023/02/17 06:00:57;;;;;;;2.20;2.10;;;;;;;11.90;77.21;101803.91;5060263;28;20031;-84
2023/02/17 06:03:23;;;;;;;0.60;0.60;;;;;;;11.94;76.57;101813.59;5057544;28;20056;-85
2023/02/17 06:05:49;;;;;;;1.60;1.50;;;;;;;11.91;76.49;101821.59;5060473;28;20036;-84
2023/02/17 06:08:15;;;;;;;0.50;0.50;;;;;;;11.91;76.88;101808.31;5052126;28;20025;-84
2023/02/17 06:10:42;;;;;;;1.17;1.08;;;;;;;11.92;76.97;101810.06;5053827;28;20556;-85
2023/02/17 06:13:08;;;;;;;0.50;0.50;;;;;;;11.89;76.98;101818.06;5055983;28;20167;-84
2023/02/17 06:15:34;;;;;;;0.63;0.63;;;;;;;11.93;76.82;101816.25;5054359;28;20029;-84
2023/02/17 06:18:00;;;;;;;0.55;0.55;;;;;;;11.82;77.30;101816.34;5053663;28;20064;-84
2023/02/17 06:20:26;;;;;;;0.22;0.22;;;;;;;11.90;77.42;101825.16;5056064;28;20556;-83
2023/02/17 06:22:52;;;;;;;2.15;0.77;;;;;;;11.93;76.74;101806.50;5057005;28;20021;-84
2023/02/17 06:25:18;;;;;;;0.57;0.57;;;;;;;12.04;76.86;101808.22;5058335;28;20047;-85
2023/02/17 06:27:44;;;;;;;1.95;1.85;;;;;;;11.92;76.98;101801.22;5055760;28;20441;-85
2023/02/17 06:30:11;;;;;;;0.22;0.22;;;;;;;11.97;76.44;101802.97;5050193;28;20017;-84
2023/02/17 06:32:37;;;;;;;0.73;0.73;;;;;;;12.00;76.36;101811.78;5061065;28;20028;-83
2023/02/17 06:35:03;;;;;;;0.90;0.90;;;;;;;12.04;76.54;101819.72;5058282;28;20104;-82
2023/02/17 06:37:29;;;;;;;2.03;0.98;;;;;;;12.06;76.27;101793.13;5059233;28;20039;-81
2023/02/17 06:39:55;;;;;;;0.17;0.17;;;;;;;12.02;76.77;101799.38;5061405;28;20035;-82
2023/02/17 06:42:21;;;;;;;2.10;1.65;;;;;;;12.11;76.54;101789.53;5056212;28;20033;-83
2023/02/17 06:44:47;;;;;;;0.20;0.20;;;;;;;12.02;76.33;101794.06;5059652;28;20081;-82
2023/02/17 06:47:14;;;;;;;0.20;0.20;;;;;;;12.09;76.45;101795.78;5067370;28;20073;-82
2023/02/17 06:49:40;;;;;;;0.98;0.98;;;;;;;12.10;75.64;101785.13;5064657;28;20021;-82
2023/02/17 06:52:09;;;;;;;0.50;0.50;;;;;;;11.99;76.74;101768.44;5061003;28;20487;-85
2023/02/17 06:54:35;;;;;;;3.50;2.47;;;;;;;12.07;76.17;101785.13;5058162;28;20069;-83
2023/02/17 06:57:01;;;;;;;0.30;0.30;;;;;;;12.04;75.95;101782.53;5054330;28;20298;-84
2023/02/17 06:59:27;;;;;;;0.10;0.10;;;;;;;12.09;76.69;101790.47;5066583;28;20036;-86
2023/02/17 07:01:53;;;;;;;0.10;0.10;;;;;;;12.11;75.71;101776.25;5053577;28;20025;-84
2023/02/17 07:04:19;;;;;;;0.10;0.10;;;;;;;12.06;76.14;101779.84;5043838;28;20042;-82
2023/02/17 07:06:45;;;;;;;0.35;0.35;;;;;;;12.07;76.19;101794.91;5052126;28;20119;-83
2023/02/17 07:09:12;;;;;;;0.10;0.10;;;;;;;12.23;76.02;101783.19;5049888;28;20047;-84
2023/02/17 07:11:40;;;;;;;0.95;0.95;;;;;;;12.28;75.72;101781.34;5054346;28;20064;-85
2023/02/17 07:14:07;;;;;;;0.20;0.20;;;;;;;12.25;75.38;101784.06;5043042;28;20025;-88
2023/02/17 07:16:33;;;;;;;0.20;0.20;;;;;;;12.26;75.30;101792.91;5045508;28;20517;-89
2023/02/17 07:18:59;;;;;;;0.30;0.30;;;;;;;12.24;75.22;101795.59;5053005;28;20025;-86
2023/02/17 07:21:25;;;;;;;0.68;0.68;;;;;;;12.37;75.62;101806.06;5056424;28;20041;-87
2023/02/17 07:23:51;;;;;;;1.27;1.17;;;;;;;12.34;74.83;101817.63;5051136;28;20021;-86
2023/02/17 07:26:17;;;;;;;0.75;0.75;;;;;;;12.44;74.83;101818.38;5040755;28;20044;-86
2023/02/17 07:28:44;;;;;;;1.08;1.08;;;;;;;12.39;74.43;101828.19;5046728;28;20021;-84
2023/02/17 07:31:13;;;;;;;0.80;0.80;;;;;;;12.48;74.08;101809.47;5053808;28;20030;-86
2023/02/17 07:33:41;;;;;;;0.10;0.10;;;;;;;12.46;73.94;101806.84;5052649;28;20040;-84
2023/02/17 07:36:10;;;;;;;0.20;0.20;;;;;;;12.55;74.17;101784.56;5061150;28;20080;-83
2023/02/17 07:38:37;;;;;;;0.22;0.22;;;;;;;12.51;74.05;101798.81;5058169;28;20053;-85
2023/02/17 07:41:05;;;;;;;0.90;0.90;;;;;;;12.41;73.98;101797.16;5055352;28;20033;-85
2023/02/17 07:43:32;;;;;;;1.08;1.08;;;;;;;12.45;73.68;101804.22;5057889;28;20025;-86
2023/02/17 07:45:58;;;;;;;3.95;2.28;;;;;;;12.38;74.25;101799.88;5048268;28;20495;-84
2023/02/17 07:48:24;;;;;;;0.73;0.73;;;;;;;12.47;73.52;101797.06;5048781;28;20025;-85
2023/02/17 07:50:50;;;;;;;4.07;1.58;;;;;;;12.42;73.58;101798.91;5038214;28;20036;-86
2023/02/17 07:53:16;;;;;;;0.10;0.10;;;;;;;12.27;74.44;101800.88;5051404;28;20033;-87
2023/02/17 07:55:42;;;;;;;0.20;0.20;;;;;;;12.43;74.05;101806.00;5043570;28;20087;-87
2023/02/17 07:58:08;;;;;;;0.20;0.20;;;;;;;12.32;74.24;101799.94;5044499;28;20498;-87
2023/02/17 08:00:34;;;;;;;0.40;0.40;;;;;;;12.30;74.05;101800.81;5062795;28;20025;-87
2023/02/17 08:03:00;;;;;;;0.43;0.40;;;;;;;12.35;73.92;101818.47;5057377;28;20037;-86
2023/02/17 08:05:26;;;;;;;0.70;0.70;;;;;;;12.36;73.58;101826.47;5052999;28;20021;-87
2023/02/17 08:13:18;;;;;;;0.20;0.20;;;;;;;12.21;74.21;101837.25;5056792;28;20025;-88
2023/02/17 08:13:27;;;;;;;0.30;0.30;;;;;;;12.36;73.59;101831.78;5046419;28;21517;-86
2023/02/17 08:15:56;;;;;;;0.50;0.50;;;;;;;12.35;73.77;101850.38;5045284;28;20041;-87
2023/02/17 08:18:22;;;;;;;1.75;1.63;;;;;;;12.32;73.84;101858.41;5047453;28;20022;-85
2023/02/17 08:20:49;;;;;;;0.43;0.43;;;;;;;12.39;73.35;101846.81;5051473;28;20086;-86
2023/02/17 08:23:15;;;;;;;0.57;0.57;;;;;;;12.34;73.80;101832.69;5048691;28;20029;-85
2023/02/17 08:26:03;;;;;;;0.65;0.65;;;;;;;12.32;73.88;101832.69;5048371;28;20029;-86
2023/02/17 08:28:29;;;;;;;0.68;0.68;;;;;;;12.32;73.42;101839.78;5045958;28;20124;-86
2023/02/17 08:30:55;;;;;;;0.10;0.10;;;;;;;12.27;73.56;101848.72;5054593;28;20021;-82
2023/02/17 08:33:22;;;;;;;0.52;0.28;;;;;;;12.37;73.48;101843.28;5053939;28;20032;-86
2023/02/17 08:35:48;;;;;;;0.38;0.38;;;;;;;12.23;73.72;101854.06;5061901;28;20025;-85
2023/02/17 08:38:15;;;;;;;1.08;1.08;;;;;;;12.32;73.71;101859.25;5059736;28;20723;-84
2023/02/17 08:40:41;;;;;;;1.75;1.00;;;;;;;12.45;73.55;101852.06;5058910;28;20025;-82
2023/02/17 08:43:11;;;;;;;0.28;0.28;;;;;;;12.44;73.21;101866.22;5059735;28;20029;-83
2023/02/17 08:45:37;;;;;;;0.40;0.40;;;;;;;12.50;72.73;101859.94;5055218;28;20037;-84
2023/02/17 08:48:04;;;;;;;0.38;0.38;;;;;;;12.50;73.62;101846.66;5059232;28;20029;-84
2023/02/17 08:50:32;;;;;;;1.45;1.33;;;;;;;12.36;73.75;101863.66;5053923;28;20056;-84
2023/02/17 08:52:58;;;;;;;0.75;0.65;;;;;;;12.37;73.66;101864.53;5056464;28;20025;-85
2023/02/17 08:55:24;;;;;;;0.30;0.30;;;;;;;12.52;72.95;101860.81;5046825;28;20033;-83
2023/02/17 08:57:50;;;;;;;1.15;1.15;;;;;;;12.60;73.17;101859.81;5056771;28;20088;-82
2023/02/17 09:00:17;;;;;;;0.20;0.20;;;;;;;12.60;72.83;101840.34;5061434;28;20089;-84
2023/02/17 09:02:44;;;;;;;1.80;1.75;;;;;;;12.57;72.65;101870.50;5055666;28;20067;-84
2023/02/17 09:05:11;;;;;;;0.68;0.68;;;;;;;12.53;72.59;101871.44;5049509;28;20021;-85
2023/02/17 09:07:38;;;;;;;1.00;1.00;;;;;;;12.60;72.38;101851.84;5043229;28;20021;-85
2023/02/17 09:10:06;;;;;;;0.80;0.80;;;;;;;12.58;72.02;101858.97;5046522;28;20036;-84
2023/02/17 09:12:33;;;;;;;0.20;0.20;;;;;;;12.64;72.34;101876.63;5048490;28;20131;-85
2023/02/17 09:14:59;;;;;;;0.50;0.43;;;;;;;12.66;72.15;101869.53;5052136;28;20037;-85
2023/02/17 09:17:25;;;;;;;1.40;1.40;;;;;;;12.69;72.07;101872.13;5034294;28;20033;-83
2023/02/17 09:19:51;;;;;;;0.20;0.20;;;;;;;12.71;72.15;101874.75;5056204;28;20021;-84
2023/02/17 09:22:19;;;;;;;1.63;1.52;;;;;;;12.60;71.99;101883.75;5046461;28;20093;-83
2023/02/17 09:24:45;;;;;;;0.20;0.20;;;;;;;12.66;72.08;101888.13;5058625;28;20033;-83
2023/02/17 09:27:12;;;;;;;2.05;1.88;;;;;;;12.82;71.77;101877.28;5055904;28;20033;-84
2023/02/17 09:29:39;;;;;;;2.55;0.95;;;;;;;12.77;71.56;101853.41;5054590;28;20097;-84
2023/02/17 09:32:08;;;;;;;0.35;0.35;;;;;;;12.81;71.29;101868.44;5062819;28;20055;-84
2023/02/17 09:34:37;;;;;;;0.30;0.30;;;;;;;12.68;71.83;101848.22;5062332;28;20612;-84
2023/02/17 09:37:08;;;;;;;0.10;0.10;;;;;;;12.85;71.02;101846.22;5058359;28;20056;-83
2023/02/17 09:39:37;;;;;;;0.20;0.20;;;;;;;12.90;71.06;101868.31;5051428;28;20025;-83
2023/02/17 09:42:04;;;;;;;1.00;0.55;;;;;;;12.82;71.69;101878.16;5048856;28;20087;-83
2023/02/17 09:47:21;;;;;;;0.65;0.63;;;;;;;12.78;71.37;101871.13;4920047;27;6222589;-85
2023/02/17 09:49:56;;;;;;;1.85;0.90;;;;;;;12.83;71.80;101863.97;5139477;27;20015;-86
2023/02/17 10:00:45;;;;;;;0.20;0.20;;;;;;;12.97;71.63;101874.41;5097261;27;1237400;-83
2023/02/17 10:05:55;;;;;;;0.10;0.10;;;;;;;12.95;71.36;101884.22;5101106;27;20412;-82
2023/02/17 10:08:26;;;;;;;0.65;0.65;;;;;;;12.99;70.99;101890.38;5096000;28;20528;-81
2023/02/17 10:10:58;;;;;;;0.30;0.30;;;;;;;12.93;71.45;101897.56;5094491;28;20077;-82
2023/02/17 10:13:29;;;;;;;1.63;0.82;;;;;;;13.03;71.59;101889.44;5070283;28;20031;-85
2023/02/17 10:16:02;;;;;;;0.80;0.80;;;;;;;13.03;71.21;101905.41;5082181;28;20585;-81
2023/02/17 10:21:18;;;;;;;0.17;0.17;;;;;;;13.00;71.41;101908.13;5084782;27;20420;-82
2023/02/17 10:23:46;;;;;;;0.25;0.25;;;;;;;13.09;70.83;101898.19;5065239;28;20029;-82
2023/02/17 10:26:39;;;;;;;0.52;0.52;;;;;;;13.23;70.73;101911.34;5069580;28;20028;-84
2023/02/17 10:29:13;;;;;;;;;;;;;;;13.42;70.00;101892.44;5069789;28;20063;-84
2023/02/17 10:34:44;;;;;;;0.55;0.55;;;;;;;13.30;70.55;101920.09;5101271;27;20373;-84
2023/02/17 10:40:09;;;;;;;0.65;0.65;;;;;;;13.27;70.09;101918.38;5073648;27;20383;-84
2023/02/17 10:42:38;;;;;;;0.10;0.10;;;;;;;13.29;70.20;101912.16;5068777;28;20032;-82
2023/02/17 10:47:43;;;;;;;0.65;0.65;;;;;;;13.37;70.09;101918.22;5108787;27;20162;-85
2023/02/17 10:50:25;;;;;;;0.10;0.10;;;;;;;13.44;69.42;101911.94;5108165;28;20064;-83
2023/02/17 10:52:52;;;;;;;0.65;0.63;;;;;;;13.40;69.75;101931.53;5102285;28;20024;-85
2023/02/17 10:55:39;;;;;;;1.92;0.93;;;;;;;13.43;69.55;101928.81;5101183;28;20043;-81
2023/02/17 10:58:20;;;;;;;0.75;0.75;;;;;;;13.25;69.51;101944.13;5097406;28;20020;-83
2023/02/17 11:00:51;;;;;;;0.30;0.30;;;;;;;13.37;69.42;101923.56;5098086;28;20111;-83
2023/02/17 11:03:23;;;;;;;1.25;1.17;;;;;;;13.14;69.88;101938.06;5100402;28;20039;-83
2023/02/17 11:05:55;;;;;;;1.35;1.35;;;;;;;13.23;69.86;101947.69;5095655;28;20034;-84
2023/02/17 11:08:33;;;;;;;1.88;0.60;;;;;;;13.05;70.43;101959.47;5096823;28;20040;-85
2023/02/17 11:11:03;;;;;;;1.90;0.95;;;;;;;13.03;70.20;101942.66;5094066;28;20032;-83
2023/02/17 11:13:36;;;;;;;0.40;0.40;;;;;;;13.10;69.71;101920.38;5097563;28;20020;-84
2023/02/17 11:16:03;;;;;;;1.52;1.50;;;;;;;12.98;69.84;101915.22;5107494;28;20052;-85
2023/02/17 11:18:34;;;;;;;0.40;0.40;;;;;;;12.92;69.92;101938.34;5109021;28;20028;-84
2023/02/17 11:21:05;;;;;;;0.20;0.20;;;;;;;12.94;69.94;101933.00;5099141;28;20093;-85
2023/02/17 11:23:32;;;;;;;0.30;0.30;;;;;;;12.83;70.84;101927.81;5092162;28;20060;-84
2023/02/17 11:28:37;;;;;;;0.10;0.10;;;;;;;12.78;70.63;101930.53;5104532;27;20404;-84
2023/02/17 11:31:05;;;;;;;0.40;0.40;;;;;;;12.69;70.89;101929.75;5107055;28;20060;-84
2023/02/17 11:33:38;;;;;;;1.35;0.63;;;;;;;12.69;71.06;101929.75;5102028;28;20028;-86
2023/02/17 11:36:05;;;;;;;;;;;;;;;12.89;70.21;101943.69;5083591;28;20024;-85
2023/02/17 11:38:42;;;;;;;0.20;0.20;;;;;;;12.82;70.62;101949.97;5092738;28;19912;-86
2023/02/17 11:41:09;;;;;;;0.35;0.35;;;;;;;12.73;70.88;101964.25;5086060;28;20048;-85
2023/02/17 11:43:38;;;;;;;0.20;0.20;;;;;;;12.78;70.45;101958.91;5082518;28;20031;-85
2023/02/17 11:49:05;;;;;;;0.82;0.82;;;;;;;12.84;70.45;101976.56;5082974;27;1454281;-83
2023/02/17 11:57:29;;;;;;;1.10;1.10;;;;;;;12.81;70.39;101966.84;5104354;27;1258041;-83
2023/02/17 12:03:26;;;;;;;0.32;0.32;;;;;;;12.99;70.54;101984.38;5071837;27;20392;-84
2023/02/17 12:06:12;;;;;;;0.10;0.10;;;;;;;13.09;69.75;101987.81;5063483;27;20038;-84
2023/02/17 12:15:09;;;;;;;1.60;1.55;;;;;;;13.03;69.43;101971.91;5089825;27;1881295;-85
2023/02/17 12:18:10;;;;;;;0.20;0.20;;;;;;;13.17;69.04;101990.38;5115178;28;20393;-85
2023/02/17 12:21:03;;;;;;;0.43;0.43;;;;;;;13.13;69.17;101997.50;5112062;28;20031;-85
2023/02/17 12:23:55;;;;;;;1.85;1.75;;;;;;;13.06;69.51;101975.41;5097053;28;20027;-85
2023/02/17 12:26:39;;;;;;;0.20;0.20;;;;;;;13.06;69.56;101986.06;5096362;28;20029;-85
2023/02/17 12:29:22;;;;;;;2.65;0.82;;;;;;;13.06;69.48;102007.34;5108264;28;20705;-86
2023/02/17 12:34:55;;;;;;;0.20;0.20;;;;;;;13.09;69.42;102023.25;5067647;27;20383;-84
2023/02/17 12:37:27;;;;;;;0.10;0.10;;;;;;;13.05;69.15;102029.53;5048418;28;20069;-84
2023/02/17 12:40:07;;;;;;;0.20;0.20;;;;;;;13.07;68.88;102021.50;5048756;28;20025;-84
2023/02/17 12:42:42;;;;;;;0.40;0.40;;;;;;;13.19;68.73;102037.34;5049970;27;20025;-84
2023/02/17 12:45:20;;;;;;;0.10;0.10;;;;;;;13.19;68.41;102032.03;5047342;27;20025;-83
2023/02/17 12:48:00;;;;;;;0.40;0.40;;;;;;;13.21;68.43;102030.22;5039532;27;20029;-84
2023/02/17 12:50:54;;;;;;;0.10;0.10;;;;;;;13.32;68.56;102037.19;5042889;27;21045;-85
2023/02/17 12:53:47;;;;;;;0.43;0.43;;;;;;;13.22;68.28;102039.97;5037630;27;20089;-85
2023/02/17 12:59:19;;;;;;;0.20;0.20;;;;;;;13.30;67.84;102039.88;5013413;27;3572838;-86